Latest Weather Observations for Nowra

IDN60901

Issued at 10:32 am EDT Saturday 20 December 2014 (issued every 10 minutes, with the page automatically refreshed every 10 minutes)

About weather observations | Map of Canberra area stations | Latest observations for Canberra area | Other Formats
Station Details ID: 068072 Name: NOWRA RAN AIR STATION AWS Lat: -34.95 Lon: 150.54 Height: 109.0 m
Data from the previous 72 hours. | See also: Recent months at Nowra
Date/Time
EDT
Tmp

°C
App
Tmp
°C
Dew
Point
°C
Rel
Hum
%
Delta-T

°C
Wind Press
QNH
hPa
Press
MSL
hPa
Rain
since
9 am
mm
Dir
 
Spd
km/h
Gust
km/h
Spd
kts
Gust
kts
20/10:00am 19.1 18.0 10.1 56 4.8 N 6 11 3 6 1018.2 - 0.0
20/09:30am 18.5 16.8 9.8 57 4.6 NE 9 22 5 12 1018.4 - 0.0
20/09:00am 19.1 18.0 10.6 58 4.6 ENE 7 13 4 7 1018.5 1018.2 0.0
20/08:30am 17.6 17.4 10.5 63 3.8 NNE 2 7 1 4 1018.6 - 0.0
20/08:00am 17.7 17.6 10.8 64 3.7 NW 2 9 1 5 1018.5 - 0.0
20/07:30am 16.4 15.6 11.6 73 2.6 W 7 9 4 5 1018.2 - 0.0
20/07:00am 15.7 15.0 11.9 78 2.1 WNW 7 9 4 5 1018.0 - 0.0
20/06:30am 15.3 14.7 11.7 79 2.0 W 6 7 3 4 1017.8 - 0.0
20/05:30am 15.1 14.1 11.1 77 2.1 WSW 7 9 4 5 1017.6 - 0.0
20/05:00am 15.1 14.2 11.3 78 2.0 SW 7 9 4 5 1017.6 - 0.0
20/04:30am 15.2 14.4 11.2 77 2.1 SW 6 9 3 5 1017.3 - 0.0
20/04:00am 15.1 14.2 11.5 79 1.9 SSW 7 11 4 6 1017.4 - 0.0
20/03:30am 15.1 13.9 11.5 79 1.9 SW 9 11 5 6 1017.4 - 0.0
20/03:00am 15.2 13.6 11.4 78 2.0 SSW 11 15 6 8 1017.7 1017.4 0.0
20/02:30am 15.5 13.5 11.5 77 2.2 SSW 13 17 7 9 1018.0 - 0.0
20/02:00am 15.8 15.2 11.6 76 2.3 S 6 9 3 5 1018.1 - 0.0
20/01:30am 15.7 15.0 11.9 78 2.1 SW 7 11 4 6 1018.3 - 0.0
20/01:00am 15.9 14.7 11.7 76 2.3 SSW 9 13 5 7 1018.4 - 0.0
20/12:30am 16.1 14.5 11.5 74 2.5 SSW 11 15 6 8 1018.7 - 0.0
 
Date/Time
EDT
Tmp

°C
App
Tmp
°C
Dew
Point
°C
Rel
Hum
%
Delta-T

°C
Wind Press
QNH
hPa
Press
MSL
hPa
Rain
since
9 am
mm
Dir
 
Spd
km/h
Gust
km/h
Spd
kts
Gust
kts
19/11:30pm 16.8 17.1 10.9 68 3.2 CALM 0 4 0 2 1019.0 - 0.0
19/11:00pm 16.9 16.9 11.0 68 3.2 SSE 2 6 1 3 1019.1 - 0.0
19/10:57pm 16.9 16.5 11.0 68 3.2 SSE 4 7 2 4 1019.1 - 0.0
19/10:38pm 16.9 17.2 11.0 68 3.2 CALM 0 0 0 0 1018.9 - 0.0
19/10:30pm 16.9 17.2 11.0 68 3.2 CALM 0 6 0 3 1018.9 - 0.0
19/10:00pm 16.9 15.8 10.7 67 3.3 SE 7 9 4 5 1018.7 - 0.0
19/09:30pm 17.1 15.2 10.5 65 3.5 SSE 11 15 6 8 1018.2 - 0.0
19/09:00pm 17.2 15.8 10.8 66 3.4 SE 9 11 5 6 1018.0 - 0.0
19/08:30pm 17.4 15.1 10.3 63 3.8 SSE 13 19 7 10 1017.7 - 0.0
19/08:00pm 17.5 14.7 10.1 62 3.9 SE 15 20 8 11 1017.3 - 0.0
19/07:30pm 17.8 14.6 9.9 60 4.2 SE 17 24 9 13 1016.7 - 0.0
19/07:00pm 18.0 14.3 10.1 60 4.2 SSE 20 26 11 14 1016.1 - 0.0
19/06:30pm 18.3 14.4 9.4 56 4.7 SSE 20 26 11 14 1015.4 - 0.0
19/05:30pm 18.8 14.7 8.7 52 5.3 ESE 20 28 11 15 1014.5 - 0.0
19/05:00pm 19.7 15.1 8.1 47 6.0 ESE 22 30 12 16 1014.1 - 0.0
19/04:30pm 20.8 16.9 9.4 48 6.1 ESE 20 26 11 14 1013.8 - 0.0
19/04:00pm 21.1 16.9 9.7 48 6.2 ESE 22 35 12 19 1013.7 - 0.0
19/03:30pm 21.4 16.4 9.6 47 6.4 ENE 26 30 14 16 1013.6 - 0.0
19/03:00pm 20.8 16.5 9.4 48 6.1 SE 22 28 12 15 1013.3 1012.9 0.0
19/02:30pm 20.9 17.2 9.5 48 6.1 SE 19 26 10 14 1013.1 - 0.0
19/02:00pm 20.5 16.4 8.5 46 6.3 SSE 20 30 11 16 1012.9 - 0.0
19/01:30pm 21.0 17.3 9.3 47 6.3 S 19 22 10 12 1012.9 - 0.0
19/01:00pm 20.4 16.2 8.1 45 6.4 ESE 20 26 11 14 1013.1 - 0.0
19/12:30pm 19.9 16.1 9.8 52 5.4 SE 20 32 11 17 1013.3 - 0.0
19/12:00pm 19.3 15.7 9.8 54 5.1 ESE 19 24 10 13 1013.4 1013.0 0.0
19/11:30am 19.9 17.1 10.0 53 5.3 SSE 15 20 8 11 1013.4 - 0.0
19/11:00am 20.1 16.8 9.7 51 5.6 SSE 17 28 9 15 1013.5 - 0.0
19/10:30am 19.2 15.3 9.4 53 5.2 SSE 20 26 11 14 1013.5 - 0.0
19/10:00am 18.4 14.8 9.7 57 4.6 SSE 19 26 10 14 1013.6 - 0.0
19/09:30am 18.1 14.4 10.2 60 4.2 SE 20 26 11 14 1013.5 - 0.0
19/09:00am 18.1 16.5 11.4 65 3.7 ESE 11 19 6 10 1013.1 1012.8 0.0
19/08:30am 17.3 15.8 10.4 64 3.7 S 9 15 5 8 1013.0 - 0.0
19/08:00am 17.1 14.6 10.9 67 3.3 S 15 20 8 11 1012.7 - 0.0
19/07:30am 17.0 16.8 11.9 72 2.8 WSW 4 9 2 5 1012.3 - 0.0
19/07:00am 16.3 16.6 12.1 76 2.3 SW 2 6 1 3 1012.0 - 0.0
19/06:30am 16.0 15.7 12.6 80 1.9 WSW 6 7 3 4 1011.6 - 0.0
19/06:00am 15.3 15.1 13.0 86 1.3 SW 6 9 3 5 1011.3 1011.0 0.0
19/05:30am 15.0 15.8 12.5 85 1.4 CALM 0 0 0 0 1011.1 - 0.0
19/05:00am 15.1 15.8 12.2 83 1.6 CALM 0 6 0 3 1010.8 - 0.0
19/04:30am 15.6 14.9 12.0 79 2.0 S 7 11 4 6 1010.3 - 0.0
19/04:00am 16.4 14.4 12.6 78 2.1 S 15 24 8 13 1009.9 - 0.0
19/03:30am 16.9 12.9 13.0 78 2.2 S 26 39 14 21 1009.3 - 0.0
19/03:00am 17.1 13.1 14.0 82 1.8 S 28 46 15 25 1008.8 1008.5 0.0
19/02:55am 17.1 13.1 14.0 82 1.8 S 28 46 15 25 1008.8 - 0.0
19/02:41am 17.1 12.7 14.0 82 1.8 S 30 41 16 22 1008.7 - 0.0
19/02:30am 17.0 12.5 13.9 82 1.8 S 30 44 16 24 1008.6 - 0.0
19/02:00am 17.5 13.5 15.1 86 1.4 S 30 44 16 24 1007.9 - 0.0
19/01:58am 17.7 13.7 15.1 85 1.5 S 30 44 16 24 1007.9 - 0.0
19/01:30am 17.7 16.1 16.6 93 0.7 W 20 22 11 12 1006.3 - 0.0
19/01:00am 18.2 17.5 17.4 95 0.5 WNW 17 20 9 11 1006.0 - 0.0
19/12:30am 18.6 18.4 18.4 99 0.1 W 17 19 9 10 1005.8 - 0.0
19/12:00am 18.9 19.3 18.9 100 0.0 W 15 17 8 9 1005.8 1005.4 0.0
 
Date/Time
EDT
Tmp

°C
App
Tmp
°C
Dew
Point
°C
Rel
Hum
%
Delta-T

°C
Wind Press
QNH
hPa
Press
MSL
hPa
Rain
since
9 am
mm
Dir
 
Spd
km/h
Gust
km/h
Spd
kts
Gust
kts
18/11:30pm 17.7 20.3 17.5 99 0.1 CALM 0 0 0 0 1005.8 - 0.0
18/11:00pm 18.4 20.5 18.2 99 0.1 WNW 4 7 2 4 1005.9 - 0.0
18/10:30pm 18.6 20.0 18.6 100 0.0 WSW 9 13 5 7 1006.0 - 0.0
18/10:00pm 19.0 20.8 18.8 99 0.1 W 7 9 4 5 1005.8 - 0.0
18/09:30pm 19.1 21.0 18.9 99 0.1 SSW 7 9 4 5 1005.7 - 0.0
18/09:00pm 19.5 20.8 18.5 94 0.6 SSW 9 13 5 7 1005.7 1005.3 0.0
18/08:30pm 20.6 22.5 18.9 90 1.1 SSE 7 9 4 5 1005.5 - 0.0
18/08:00pm 21.5 23.1 19.1 86 1.5 ESE 9 11 5 6 1005.1 - 0.0
18/07:30pm 22.7 23.9 19.1 80 2.3 E 11 15 6 8 1004.6 - 0.0
18/07:00pm 23.3 23.4 18.4 74 3.1 E 15 17 8 9 1004.3 - 0.0
18/06:30pm 23.9 24.6 18.8 73 3.2 E 13 20 7 11 1004.1 - 0.0
18/06:00pm 24.5 24.0 18.7 70 3.7 ESE 19 22 10 12 1004.0 1003.6 0.0
18/05:30pm 25.0 23.7 18.2 66 4.3 ENE 22 30 12 16 1003.6 - 0.0
18/05:00pm 25.1 22.9 17.8 64 4.6 NE 26 33 14 18 1003.6 - 0.0
18/04:30pm 25.2 22.8 17.4 62 4.9 NE 26 33 14 18 1003.6 - 0.0
18/04:00pm 25.7 23.0 17.6 61 5.1 NE 28 35 15 19 1003.8 - 0.0
18/03:30pm 25.4 23.1 17.6 62 4.9 ENE 26 37 14 20 1004.1 - 0.0
18/03:00pm 24.6 22.0 16.8 62 4.8 ENE 26 33 14 18 1004.2 1003.8 0.0
18/02:30pm 25.8 23.5 17.7 61 5.1 NE 26 33 14 18 1004.5 - 0.0
18/02:00pm 25.2 23.3 17.7 63 4.7 E 24 35 13 19 1005.2 - 0.0
18/01:30pm 25.3 23.8 16.7 59 5.3 ENE 20 28 11 15 1005.6 - 0.0
18/01:00pm 24.6 23.1 16.8 62 4.8 ENE 20 30 11 16 1006.1 - 0.0
18/12:30pm 23.0 21.5 16.8 68 3.8 E 20 26 11 14 1006.8 - 0.0
18/12:00pm 23.3 22.1 16.1 64 4.4 E 17 22 9 12 1007.2 1006.8 0.0
18/11:30am 22.4 21.9 16.0 67 3.9 ENE 13 19 7 10 1007.7 - 0.0
18/11:00am 22.2 22.8 15.8 67 3.9 ENE 7 15 4 8 1008.3 - 0.0
18/10:30am 21.5 20.6 14.9 66 3.9 NE 13 20 7 11 1008.9 - 0.0
18/10:00am 20.5 19.4 14.4 68 3.6 ENE 13 20 7 11 1009.2 - 0.0
18/09:30am 20.3 20.1 14.7 70 3.3 NE 9 15 5 8 1009.4 - 0.0
18/09:00am 19.2 18.5 14.2 73 2.9 NE 11 15 6 8 1009.7 1009.4 0.0
18/08:30am 18.4 18.7 13.5 73 2.8 NNE 4 11 2 6 1009.9 - 0.0
18/08:00am 18.0 17.5 13.7 76 2.5 NNE 9 11 5 6 1010.1 - 0.0
18/07:30am 17.4 18.6 13.9 80 2.0 CALM 0 0 0 0 1010.1 - 0.0
18/07:00am 17.0 18.0 13.3 79 2.1 CALM 0 0 0 0 1009.9 - 0.0
18/06:30am 16.3 16.7 13.8 85 1.4 SW 4 7 2 4 1009.6 - 0.0
18/06:00am 15.9 16.3 13.7 87 1.2 WSW 4 7 2 4 1009.2 1008.9 0.0
18/05:30am 16.0 16.0 13.5 85 1.4 W 6 7 3 4 1009.3 - 0.0
18/05:00am 16.0 17.1 13.5 85 1.4 CALM 0 0 0 0 1009.3 - 0.0
18/04:30am 16.1 17.0 12.8 81 1.8 CALM 0 0 0 0 1009.1 - 0.0
18/04:00am 16.1 17.0 13.0 82 1.7 CALM 0 0 0 0 1009.3 - 0.0
18/03:30am 16.1 17.0 12.8 81 1.8 CALM 0 0 0 0 1009.2 - 0.0
18/03:00am 16.2 15.9 12.7 80 1.9 WSW 6 7 3 4 1009.5 1009.2 0.0
18/02:30am 16.0 16.0 13.5 85 1.4 SSW 6 7 3 4 1009.6 - 0.0
18/02:00am 16.3 17.3 13.2 82 1.7 CALM 0 0 0 0 1010.1 - 0.0
18/01:30am 16.5 17.2 12.1 75 2.4 CALM 0 0 0 0 1010.4 - 0.0
18/01:00am 16.6 17.4 12.4 76 2.3 CALM 0 0 0 0 1010.6 - 0.0
18/12:30am 16.6 17.3 12.2 75 2.4 CALM 0 0 0 0 1010.9 - 0.0
18/12:00am 16.7 17.3 11.8 73 2.7 CALM 0 0 0 0 1011.2 1010.9 0.0
 
Date/Time
EDT
Tmp

°C
App
Tmp
°C
Dew
Point
°C
Rel
Hum
%
Delta-T

°C
Wind Press
QNH
hPa
Press
MSL
hPa
Rain
since
9 am
mm
Dir
 
Spd
km/h
Gust
km/h
Spd
kts
Gust
kts
17/11:30pm 16.7 16.9 11.8 73 2.7 NNE 2 6 1 3 1011.5 - 0.0
17/11:00pm 16.8 16.0 11.7 72 2.8 NE 7 11 4 6 1011.6 - 0.0
17/10:30pm 16.8 15.9 11.5 71 2.9 NE 7 9 4 5 1011.8 - 0.0
17/10:00pm 16.8 15.2 11.5 71 2.9 E 11 15 6 8 1011.6 - 0.0
17/09:30pm 16.7 14.7 11.4 71 2.9 E 13 17 7 9 1011.5 - 0.0
17/09:00pm 17.0 15.8 11.7 71 2.9 E 9 13 5 7 1011.3 1011.0 0.0
17/08:30pm 17.1 15.3 10.9 67 3.3 E 11 17 6 9 1010.8 - 0.0
17/08:00pm 17.4 16.0 11.0 66 3.5 E 9 11 5 6 1010.4 - 0.0
17/07:30pm 17.5 15.7 10.9 65 3.6 SE 11 11 6 6 1010.1 - 0.0
17/07:00pm 17.7 15.4 10.6 63 3.8 SE 13 17 7 9 1009.7 - 0.0
17/06:30pm 18.0 15.8 10.9 63 3.8 SE 13 17 7 9 1009.4 - 0.0
17/06:00pm 18.1 15.1 10.5 61 4.1 ESE 17 22 9 12 1009.0 1008.7 0.0
17/05:30pm 18.3 14.8 10.2 59 4.3 ESE 19 24 10 13 1008.7 - 0.0
17/05:00pm 18.5 14.9 9.8 57 4.6 ESE 19 22 10 12 1008.6 - 0.0
17/04:30pm 18.6 14.9 9.4 55 4.9 ESE 19 26 10 14 1008.6 - 0.0
17/04:00pm 18.6 14.8 9.1 54 5.0 ESE 19 24 10 13 1008.7 - 0.0
17/03:30pm 18.9 14.6 9.4 54 5.0 ESE 22 28 12 15 1008.5 - 0.0
17/03:00pm 18.8 14.3 8.5 51 5.4 ESE 22 39 12 21 1008.5 1008.2 0.0
17/02:30pm 20.4 17.1 9.6 50 5.8 E 17 22 9 12 1008.3 - 0.0
17/02:00pm 19.6 15.9 10.0 54 5.2 SSE 20 28 11 15 1008.3 - 0.0
17/01:30pm 19.0 13.6 8.1 49 5.6 S 26 30 14 16 1008.1 - 0.0
17/01:00pm 19.5 15.9 9.7 53 5.2 SE 19 26 10 14 1008.1 - 0.0
17/12:30pm 19.4 15.0 9.0 51 5.5 SSE 22 26 12 14 1008.0 - 0.0
17/12:00pm 19.4 15.2 9.6 53 5.2 SSE 22 30 12 16 1008.0 1007.6 0.0
17/11:30am 19.5 15.0 10.2 55 5.0 SSE 24 30 13 16 1008.1 - 0.0
17/11:00am 19.0 14.4 9.5 54 5.0 S 24 30 13 16 1008.0 - 0.0

Latest Capital City Observations: Canberra | Sydney | Melbourne | Brisbane | Adelaide | Perth | Hobart | Darwin

Other Formats:

Comma delimited format used in spreadsheet applications
http://www.bom.gov.au/fwo/IDN60903/IDN60903.94750.axf

JavaScript Object Notation format (JSON) in row-major order
http://www.bom.gov.au/fwo/IDN60903/IDN60903.94750.json